Time;durP1;ratioP1;P1;durP2;ratioP2;P2;SDS_P1;SDS_P2;PMS_P1;PMS_P2;Temp;Humidity;BMP_temperature;BMP_pressure;BME280_temperature;BME280_humidity;BME280_pressure;Samples;Min_cycle;Max_cycle;Signal;HPM_P1;HPM_P2
2023/10/20 00:00:14;;;;;;;7.60;6.90;;;17.00;99.90;;;;;;5016630;28;20451;-87
2023/10/20 00:02:43;;;;;;;6.90;6.30;;;17.00;99.90;;;;;;5014773;28;20451;-88
2023/10/20 00:05:10;;;;;;;6.60;6.00;;;17.00;99.90;;;;;;5017536;28;20461;-86
2023/10/20 00:07:37;;;;;;;8.80;6.93;;;16.90;99.90;;;;;;5016604;28;20468;-87
2023/10/20 00:10:09;;;;;;;7.20;6.50;;;16.90;99.90;;;;;;5017341;28;21085;-89
2023/10/20 00:12:39;;;;;;;7.93;7.23;;;16.90;99.90;;;;;;5017233;28;20522;-87
2023/10/20 00:15:13;;;;;;;7.30;6.60;;;16.90;99.90;;;;;;5010455;28;20511;-87
2023/10/20 00:17:41;;;;;;;7.13;6.43;;;16.80;99.90;;;;;;5013766;28;20454;-89
2023/10/20 00:20:12;;;;;;;7.63;6.60;;;16.90;99.90;;;;;;5012848;28;21069;-87
2023/10/20 00:22:40;;;;;;;6.97;6.27;;;16.90;99.90;;;;;;5010734;28;20446;-87
2023/10/20 00:25:11;;;;;;;7.60;6.80;;;16.90;99.90;;;;;;5015026;28;20456;-89
2023/10/20 00:27:43;;;;;;;7.77;6.97;;;16.90;99.90;;;;;;5016278;28;21263;-87
2023/10/20 00:30:12;;;;;;;10.80;7.47;;;16.90;99.90;;;;;;5021016;28;20481;-88
2023/10/20 00:32:41;;;;;;;8.00;7.10;;;16.90;99.90;;;;;;5014491;28;20458;-89
2023/10/20 00:35:13;;;;;;;6.53;5.93;;;16.80;99.90;;;;;;5012585;28;20489;-88
2023/10/20 00:37:40;;;;;;;7.40;6.70;;;16.70;99.90;;;;;;5015933;28;20462;-90
2023/10/20 00:40:11;;;;;;;7.40;6.70;;;16.90;99.90;;;;;;5013249;28;20490;-88
2023/10/20 00:42:40;;;;;;;7.30;6.70;;;16.70;99.90;;;;;;5016727;28;20498;-88
2023/10/20 00:45:19;;;;;;;8.57;6.80;;;16.70;99.90;;;;;;5003785;28;20510;-86
2023/10/20 00:47:51;;;;;;;6.93;6.33;;;16.80;99.90;;;;;;5012236;28;20510;-88
2023/10/20 00:50:18;;;;;;;8.27;7.10;;;16.80;99.90;;;;;;5011603;28;20536;-87
2023/10/20 00:52:52;;;;;;;7.80;7.00;;;16.80;99.90;;;;;;5010585;28;20567;-85
2023/10/20 00:55:21;;;;;;;7.53;6.77;;;16.80;99.90;;;;;;5011387;28;20545;-87
2023/10/20 00:57:53;;;;;;;7.40;6.77;;;16.90;99.90;;;;;;5002901;28;20453;-86
2023/10/20 01:00:21;;;;;;;7.67;6.90;;;16.90;99.90;;;;;;5015424;28;20500;-87
2023/10/20 01:02:51;;;;;;;7.77;7.00;;;17.00;99.90;;;;;;5020816;28;20479;-88
2023/10/20 01:05:24;;;;;;;8.60;7.67;;;17.00;99.90;;;;;;5011014;28;20678;-90
2023/10/20 01:07:51;;;;;;;8.03;7.23;;;16.90;99.90;;;;;;5010788;28;20431;-89
2023/10/20 01:10:20;;;;;;;8.50;7.70;;;16.90;99.90;;;;;;5015005;28;20538;-87
2023/10/20 01:12:48;;;;;;;8.70;6.97;;;16.80;99.90;;;;;;5013143;28;20453;-89
2023/10/20 01:15:16;;;;;;;8.53;7.30;;;16.80;99.90;;;;;;5003256;28;20476;-88
2023/10/20 01:17:42;;;;;;;9.40;7.30;;;16.80;99.90;;;;;;5013367;28;20473;-89
2023/10/20 01:20:11;;;;;;;8.20;7.30;;;16.90;99.90;;;;;;5018693;28;20496;-85
2023/10/20 01:22:39;;;;;;;8.03;6.77;;;16.80;99.90;;;;;;5032494;28;20458;-88
2023/10/20 01:25:07;;;;;;;8.20;7.40;;;16.90;99.90;;;;;;5012094;28;20565;-88
2023/10/20 01:27:33;;;;;;;9.00;7.67;;;16.90;99.90;;;;;;5013460;28;20459;-88
2023/10/20 01:30:00;;;;;;;8.17;6.93;;;16.90;99.90;;;;;;5004359;28;21187;-90
2023/10/20 01:32:27;;;;;;;7.40;6.70;;;17.00;99.90;;;;;;5002837;28;20450;-88
2023/10/20 01:34:55;;;;;;;7.77;6.70;;;17.00;99.90;;;;;;4998654;28;20585;-87
2023/10/20 01:37:22;;;;;;;8.07;6.80;;;16.90;99.90;;;;;;5000592;28;20655;-88
2023/10/20 01:39:50;;;;;;;8.43;7.63;;;16.90;99.90;;;;;;5000376;28;20458;-88
2023/10/20 01:42:17;;;;;;;8.10;6.43;;;16.90;99.90;;;;;;4999694;28;20486;-89
2023/10/20 01:44:44;;;;;;;7.23;6.47;;;16.90;99.90;;;;;;4999995;28;20454;-87
2023/10/20 01:47:11;;;;;;;8.50;6.73;;;17.00;99.90;;;;;;5001656;28;20464;-89
2023/10/20 01:49:37;;;;;;;8.00;7.20;;;17.00;99.90;;;;;;5001503;28;20524;-89
2023/10/20 01:52:06;;;;;;;7.07;6.37;;;16.90;99.90;;;;;;4999747;28;20476;-89
2023/10/20 01:54:33;;;;;;;7.70;7.00;;;16.90;99.90;;;;;;5003166;28;20497;-89
2023/10/20 01:57:00;;;;;;;6.53;5.87;;;16.90;99.90;;;;;;5007485;28;20462;-89
2023/10/20 01:59:27;;;;;;;7.03;6.33;;;16.90;99.90;;;;;;5004995;28;20450;-89
2023/10/20 02:01:54;;;;;;;6.57;6.00;;;17.00;99.90;;;;;;5004491;28;20521;-87
2023/10/20 02:04:21;;;;;;;5.97;5.40;;;16.90;99.90;;;;;;5002170;28;20553;-88
2023/10/20 02:06:47;;;;;;;6.43;5.10;;;16.90;99.90;;;;;;4993484;28;20465;-88
2023/10/20 02:09:14;;;;;;;5.50;5.03;;;16.90;99.90;;;;;;4994556;28;20461;-89
2023/10/20 02:11:41;;;;;;;7.20;5.27;;;17.00;99.90;;;;;;4996390;28;20486;-88
2023/10/20 02:14:08;;;;;;;5.13;4.63;;;16.90;99.90;;;;;;4980828;28;20492;-88
2023/10/20 02:16:35;;;;;;;5.70;4.37;;;17.00;99.90;;;;;;4997511;28;20465;-89
2023/10/20 02:19:04;;;;;;;5.90;5.03;;;16.90;99.90;;;;;;5000519;28;20463;-89
2023/10/20 02:21:31;;;;;;;5.40;4.90;;;17.00;99.90;;;;;;5000392;28;20485;-88
2023/10/20 02:23:58;;;;;;;4.87;4.37;;;16.90;99.90;;;;;;5002187;28;20463;-87
2023/10/20 02:26:25;;;;;;;5.00;4.60;;;16.90;99.90;;;;;;4999682;28;20468;-89
2023/10/20 02:28:52;;;;;;;4.83;4.33;;;16.80;99.90;;;;;;4999875;28;20537;-88
2023/10/20 02:31:24;;;;;;;5.67;4.53;;;16.80;99.90;;;;;;5000126;28;20491;-90
2023/10/20 02:34:00;;;;;;;4.63;4.23;;;16.80;99.90;;;;;;5001145;28;20612;-88
2023/10/20 02:36:27;;;;;;;4.23;3.83;;;16.80;99.90;;;;;;4998207;28;20442;-87
2023/10/20 02:38:55;;;;;;;3.80;3.40;;;16.80;99.90;;;;;;5000623;28;20478;-87
2023/10/20 02:41:22;;;;;;;4.00;3.60;;;16.90;99.90;;;;;;5000240;28;20475;-90
2023/10/20 02:43:48;;;;;;;4.50;3.40;;;16.80;99.90;;;;;;5000215;28;20464;-88
2023/10/20 02:46:16;;;;;;;4.20;3.50;;;16.80;99.90;;;;;;4998422;28;20454;-88
2023/10/20 02:48:43;;;;;;;3.40;3.10;;;16.70;99.90;;;;;;4996367;28;20467;-88
2023/10/20 02:51:12;;;;;;;4.00;3.63;;;16.90;99.90;;;;;;4995230;28;20833;-89
2023/10/20 02:53:40;;;;;;;3.20;2.90;;;16.90;99.90;;;;;;4997843;28;20498;-88
2023/10/20 02:56:15;;;;;;;3.80;3.40;;;16.90;99.90;;;;;;5000774;28;20465;-87
2023/10/20 02:58:45;;;;;;;4.10;3.13;;;16.90;99.90;;;;;;4998229;28;20483;-88
2023/10/20 03:01:14;;;;;;;3.17;2.97;;;17.00;99.90;;;;;;4999852;28;20477;-89
2023/10/20 03:03:42;;;;;;;3.20;2.90;;;17.00;99.90;;;;;;5003109;28;20500;-88
2023/10/20 03:06:11;;;;;;;3.30;3.10;;;16.90;99.90;;;;;;5000148;28;20471;-86
2023/10/20 03:08:40;;;;;;;2.67;2.47;;;16.90;99.90;;;;;;5003077;28;20467;-87
2023/10/20 03:11:09;;;;;;;3.27;2.90;;;17.00;99.90;;;;;;5002017;28;20482;-91
2023/10/20 03:13:39;;;;;;;3.17;2.97;;;17.10;99.90;;;;;;5004165;28;20487;-88
2023/10/20 03:17:00;;;;;;;3.07;2.87;;;17.00;99.90;;;;;;5000621;28;20452;-85
2023/10/20 03:19:55;;;;;;;3.03;2.50;;;17.00;99.90;;;;;;4992326;28;21160;-86
2023/10/20 03:22:34;;;;;;;3.20;2.90;;;17.00;99.90;;;;;;5005617;28;20556;-87
2023/10/20 03:25:26;;;;;;;2.70;2.50;;;17.00;99.90;;;;;;4999269;28;20455;-87
2023/10/20 03:28:25;;;;;;;2.63;2.43;;;17.00;99.90;;;;;;5001240;28;20473;-88
2023/10/20 03:31:22;;;;;;;;;;;;;;;;;;;;;
2023/10/20 03:34:23;;;;;;;3.40;2.80;;;16.90;99.90;;;;;;4994462;28;20585;-90
2023/10/20 03:37:13;;;;;;;3.37;2.60;;;17.00;99.90;;;;;;5000672;28;20435;-88
2023/10/20 03:43:40;;;;;;;3.40;3.20;;;17.00;99.90;;;;;;4984392;28;20467;-88
2023/10/20 03:47:31;;;;;;;;;;;;;;;;;;;;;
2023/10/20 03:50:48;;;;;;;5.80;3.30;;;17.00;99.90;;;;;;4963322;28;20591;-90
2023/10/20 04:01:06;;;;;;;3.17;2.87;;;17.00;99.90;;;;;;4927042;29;20502;-91
2023/10/20 04:04:15;;;;;;;3.70;3.40;;;17.00;99.90;;;;;;4911217;29;20461;-87
2023/10/20 04:07:41;;;;;;;3.87;3.57;;;16.90;99.90;;;;;;4872291;29;20464;-91
2023/10/20 04:14:05;;;;;;;4.17;2.57;;;17.00;99.90;;;;;;4904079;29;20643;-88
2023/10/20 04:21:03;;;;;;;5.73;3.47;;;16.90;99.90;;;;;;4951401;28;20464;-88
2023/10/20 04:24:32;;;;;;;;;;;;;;;;;;;;;
2023/10/20 04:42:55;;;;;;;4.70;4.10;;;16.80;99.90;;;;;;4950077;29;20483;-89
2023/10/20 04:57:02;;;;;;;4.43;4.13;;;16.90;99.90;;;;;;4838257;29;20479;-89
2023/10/20 05:07:50;;;;;;;4.00;3.70;;;16.80;99.90;;;;;;4936451;29;20493;-89
2023/10/20 05:11:39;;;;;;;3.03;2.83;;;16.80;99.90;;;;;;4911375;29;20469;-88
2023/10/20 05:15:26;;;;;;;2.97;2.77;;;16.70;99.90;;;;;;4918172;29;20505;-88
2023/10/20 05:23:30;;;;;;;;;;;;;;;;;;;;;
2023/10/20 05:35:25;;;;;;;3.23;2.93;;;16.60;99.90;;;;;;5025148;28;20513;-88
2023/10/20 05:39:24;;;;;;;3.37;3.07;;;16.60;99.90;;;;;;5000303;28;20484;-90
2023/10/20 05:42:20;;;;;;;3.57;3.27;;;16.60;99.90;;;;;;5018223;28;20461;-88
2023/10/20 05:45:43;;;;;;;3.30;2.93;;;16.50;99.90;;;;;;5005855;28;20433;-87
2023/10/20 05:49:02;;;;;;;3.23;3.03;;;16.70;99.90;;;;;;4947602;28;20444;-89
2023/10/20 06:40:33;;;;;;;3.90;3.40;;;16.70;99.90;;;;;;4949060;28;20445;-85
2023/10/20 06:43:50;;;;;;;5.37;3.80;;;16.70;99.90;;;;;;4938926;29;20505;-84
2023/10/20 06:47:10;;;;;;;5.03;3.60;;;16.60;99.90;;;;;;4940193;29;20440;-86
2023/10/20 06:50:25;;;;;;;;;;;;;;;;;;;;;
2023/10/20 06:53:18;;;;;;;14.47;12.63;;;16.60;99.90;;;;;;4957016;28;20621;-87
2023/10/20 09:12:38;;;;;;;6.27;5.67;;;16.70;99.90;;;;;;730195;22;20772;-87
2023/10/20 09:15:55;;;;;;;9.27;6.17;;;16.70;99.90;;;;;;5025606;28;20523;-87
2023/10/20 09:19:21;;;;;;;6.90;6.20;;;16.80;99.90;;;;;;5033090;28;20460;-88
2023/10/20 09:22:08;;;;;;;6.43;5.90;;;16.90;99.90;;;;;;5018664;28;20457;-88
2023/10/20 09:25:21;;;;;;;7.63;6.93;;;16.70;99.90;;;;;;4987588;28;20515;-85
2023/10/20 09:28:58;;;;;;;;;;;;;;;;;;;;;
2023/10/20 09:36:26;;;;;;;;;;;;;;;;;;;;;
2023/10/20 09:39:15;;;;;;;;;;;;;;;;;;;;;
2023/10/20 09:42:46;;;;;;;5.87;5.20;;;16.70;99.90;;;;;;5028805;28;20476;-90
2023/10/20 09:46:18;;;;;;;6.67;6.07;;;16.90;99.90;;;;;;5005729;28;20538;-89
2023/10/20 09:49:44;;;;;;;6.10;5.53;;;16.80;99.90;;;;;;5021357;28;20488;-88
2023/10/20 09:52:48;;;;;;;6.40;5.37;;;16.60;99.90;;;;;;5028441;28;20457;-88
2023/10/20 09:56:21;;;;;;;6.23;5.60;;;16.80;99.90;;;;;;4999879;28;20493;-86
2023/10/20 09:59:27;;;;;;;8.13;6.67;;;16.80;99.90;;;;;;4983662;28;20497;-89
2023/10/20 10:02:37;;;;;;;7.27;6.20;;;16.70;99.90;;;;;;5000215;28;20594;-89
2023/10/20 10:05:44;;;;;;;6.27;5.63;;;16.70;99.90;;;;;;4989240;28;20430;-88
2023/10/20 10:09:10;;;;;;;6.27;5.67;;;16.60;99.90;;;;;;4999154;28;20525;-87
2023/10/20 10:12:33;;;;;;;8.87;6.53;;;16.70;99.90;;;;;;4973789;28;20462;-88
2023/10/20 10:16:27;;;;;;;7.70;5.77;;;16.80;99.90;;;;;;4980277;28;20502;-87
2023/10/20 10:55:38;;;;;;;4.63;4.23;;;17.10;99.90;;;;;;5008577;28;20489;-89
2023/10/20 13:02:49;;;;;;;6.20;5.60;;;17.20;99.90;;;;;;1115179;26;20737;-88
2023/10/20 13:06:18;;;;;;;6.10;5.20;;;17.10;99.90;;;;;;5025548;28;20489;-86
2023/10/20 13:13:25;;;;;;;7.13;6.43;;;17.20;99.90;;;;;;4997187;28;22180;-88
2023/10/20 13:16:27;;;;;;;6.17;5.30;;;16.90;99.90;;;;;;4997297;28;20504;-86
2023/10/20 13:22:34;;;;;;;10.00;6.00;;;17.30;99.90;;;;;;5260454;22;20490;-86
2023/10/20 13:26:09;;;;;;;6.60;6.00;;;17.40;99.90;;;;;;4988419;28;20486;-86
2023/10/20 13:29:07;;;;;;;6.60;6.00;;;17.50;99.90;;;;;;4970164;28;20557;-86
2023/10/20 13:35:47;;;;;;;6.77;6.03;;;17.50;99.90;;;;;;5002925;28;20479;-86
2023/10/20 13:38:49;;;;;;;5.40;4.90;;;17.50;99.90;;;;;;5001089;28;20451;-88
2023/10/20 13:45:09;;;;;;;6.13;5.63;;;17.40;99.90;;;;;;4965367;28;20444;-87
2023/10/20 13:48:18;;;;;;;6.47;5.77;;;17.20;99.90;;;;;;4960357;28;20469;-89
2023/10/20 13:51:54;;;;;;;;;;;;;;;;;;;;;
2023/10/20 13:55:16;;;;;;;6.57;5.10;;;17.30;99.90;;;;;;4876137;29;20415;-87
2023/10/20 13:58:31;;;;;;;5.80;5.20;;;17.40;99.90;;;;;;4928232;28;20437;-88
2023/10/20 14:01:44;;;;;;;6.10;5.33;;;17.60;99.90;;;;;;4932906;29;20516;-88
2023/10/20 14:05:12;;;;;;;5.70;4.90;;;17.70;99.90;;;;;;4937162;29;20600;-87
2023/10/20 14:16:32;;;;;;;3.13;1.90;;;17.40;99.90;;;;;;4889089;29;20483;-88
2023/10/20 15:36:21;;;;;;;3.27;2.97;;;16.60;99.90;;;;;;4983410;28;20519;-86
2023/10/20 15:39:25;;;;;;;1.97;1.30;;;16.70;99.90;;;;;;4980128;28;20464;-88
2023/10/20 15:42:30;;;;;;;2.80;1.00;;;16.90;99.90;;;;;;4931851;28;20459;-86
2023/10/20 15:45:46;;;;;;;0.93;0.80;;;17.10;99.90;;;;;;4930157;28;20486;-88
2023/10/20 15:52:44;;;;;;;1.50;0.80;;;16.90;99.90;;;;;;4921554;29;22391;-88
2023/10/20 15:55:47;;;;;;;1.27;0.70;;;17.30;99.90;;;;;;4938295;28;20487;-85
2023/10/20 16:02:52;;;;;;;2.10;1.70;;;17.60;99.90;;;;;;4948961;28;20453;-86
2023/10/20 16:05:54;;;;;;;1.67;1.30;;;17.40;99.90;;;;;;4912420;28;21731;-86
2023/10/20 16:09:07;;;;;;;;;;;;;;;;;;;;;
2023/10/20 16:12:44;;;;;;;1.17;1.10;;;17.40;99.90;;;;;;4895477;28;20799;-86
2023/10/20 16:15:48;;;;;;;2.73;1.90;;;17.10;99.90;;;;;;4888366;29;21171;-88
2023/10/20 16:25:26;;;;;;;2.17;1.57;;;17.00;99.90;;;;;;4858834;29;20996;-88
2023/10/20 16:32:17;;;;;;;1.53;1.30;;;17.20;99.90;;;;;;4834620;29;20462;-86
2023/10/20 16:35:46;;;;;;;2.27;1.40;;;17.30;99.90;;;;;;4824098;29;20577;-87
2023/10/20 16:38:48;;;;;;;2.10;1.90;;;17.20;99.90;;;;;;4838154;29;20473;-88
2023/10/20 16:42:06;;;;;;;2.40;1.73;;;17.20;99.90;;;;;;4820525;29;20516;-86
2023/10/20 16:45:12;;;;;;;3.80;3.17;;;17.10;99.90;;;;;;4850725;29;20449;-86
2023/10/20 16:52:34;;;;;;;2.63;1.83;;;17.00;99.90;;;;;;4848365;29;20504;-88
2023/10/20 16:55:34;;;;;;;2.30;1.60;;;16.90;99.90;;;;;;4817961;29;20489;-86
2023/10/20 16:59:01;;;;;;;2.43;1.93;;;16.90;99.90;;;;;;4847082;29;20900;-85
2023/10/20 17:02:01;;;;;;;2.40;1.80;;;16.90;99.90;;;;;;4876515;22;20495;-87
2023/10/20 17:05:16;;;;;;;2.90;2.10;;;16.90;99.90;;;;;;4958941;28;21019;-86
2023/10/20 17:08:03;;;;;;;2.37;2.00;;;16.80;99.90;;;;;;4959022;28;20883;-86
2023/10/20 17:18:25;;;;;;;2.97;2.47;;;16.50;99.90;;;;;;4946349;28;20547;-86
2023/10/20 17:21:47;;;;;;;1.77;1.67;;;16.60;99.90;;;;;;4864599;29;20460;-85
2023/10/20 17:28:11;;;;;;;2.47;2.20;;;16.60;99.90;;;;;;4884368;29;20476;-87
2023/10/20 17:31:05;;;;;;;1.90;1.57;;;16.60;99.90;;;;;;4874628;29;20487;-87
2023/10/20 17:33:52;;;;;;;1.77;1.67;;;16.60;99.90;;;;;;4877194;29;20454;-88
2023/10/20 17:36:55;;;;;;;1.17;1.07;;;16.60;99.90;;;;;;4873327;29;20487;-86
2023/10/20 17:43:23;;;;;;;1.57;1.30;;;16.70;99.90;;;;;;4903619;29;20426;-86
2023/10/20 17:53:11;;;;;;;2.27;1.50;;;16.30;99.90;;;;;;4990766;26;20491;-87
2023/10/20 17:56:23;;;;;;;1.57;1.47;;;16.40;99.90;;;;;;4935431;28;20483;-86
2023/10/20 17:59:32;;;;;;;2.03;1.47;;;16.50;99.90;;;;;;4986744;28;20471;-86
2023/10/20 18:03:00;;;;;;;1.70;1.40;;;16.40;99.90;;;;;;4972704;28;20972;-88
2023/10/20 18:06:28;;;;;;;3.23;2.57;;;16.30;99.90;;;;;;4986484;28;20472;-86
2023/10/20 18:09:51;;;;;;;;;;;;;;;;;;;;;
2023/10/20 18:17:03;;;;;;;1.40;1.30;;;16.20;99.90;;;;;;4909399;29;20565;-88
2023/10/20 18:22:41;;;;;;;1.33;1.13;;;16.10;99.90;;;;;;5039747;22;20521;-88
2023/10/20 18:26:13;;;;;;;2.60;1.03;;;16.10;99.90;;;;;;4980725;28;20978;-88
2023/10/20 18:29:29;;;;;;;1.33;1.20;;;16.20;99.90;;;;;;4967095;28;20492;-88
2023/10/20 18:33:10;;;;;;;;;;;;;;;;;;;;;
2023/10/20 18:36:33;;;;;;;1.70;1.27;;;16.00;99.90;;;;;;4972707;28;20577;-88
2023/10/20 18:40:10;;;;;;;1.63;1.50;;;16.10;99.90;;;;;;4904986;29;20458;-87
2023/10/20 18:47:19;;;;;;;2.63;1.40;;;15.90;99.90;;;;;;4910881;29;20564;-88
2023/10/20 18:50:35;;;;;;;1.77;1.67;;;15.90;99.90;;;;;;4893535;29;20462;-87
2023/10/20 18:53:27;;;;;;;1.87;1.47;;;15.90;99.90;;;;;;4904570;29;20459;-87
2023/10/20 18:56:41;;;;;;;2.13;1.77;;;15.90;99.90;;;;;;4908642;29;20574;-87
2023/10/20 19:02:42;;;;;;;;;;;;;;;;;;;;;
2023/10/20 19:05:57;;;;;;;1.80;1.70;;;15.60;99.90;;;;;;4994515;28;20506;-89
2023/10/20 19:12:15;;;;;;;2.03;1.83;;;15.60;99.90;;;;;;4934278;28;20496;-87
2023/10/20 19:15:08;;;;;;;1.93;1.67;;;15.50;99.90;;;;;;4934630;28;20437;-90
2023/10/20 19:18:34;;;;;;;3.10;1.70;;;15.40;99.90;;;;;;4930457;28;20457;-88
2023/10/20 19:22:13;;;;;;;2.70;1.90;;;15.40;99.90;;;;;;4934678;28;20560;-87
2023/10/20 19:25:35;;;;;;;1.97;1.60;;;15.40;99.90;;;;;;4916356;28;20514;-88
2023/10/20 19:36:17;;;;;;;3.33;1.77;;;15.40;99.90;;;;;;4903610;29;20451;-90
2023/10/20 19:39:19;;;;;;;2.63;2.13;;;15.30;99.90;;;;;;4963184;28;20512;-89
2023/10/20 19:42:13;;;;;;;3.67;1.57;;;15.40;99.90;;;;;;4929682;28;20491;-88
2023/10/20 19:45:06;;;;;;;3.63;1.90;;;15.50;99.90;;;;;;4931111;29;20460;-88
2023/10/20 19:51:21;;;;;;;4.50;1.60;;;15.30;99.90;;;;;;4968533;28;20554;-89
2023/10/20 19:54:28;;;;;;;8.83;1.70;;;15.20;99.90;;;;;;4954477;28;20466;-88
2023/10/20 20:00:57;;;;;;;3.17;2.33;;;15.30;99.90;;;;;;4983243;28;20966;-88
2023/10/20 20:04:11;;;;;;;2.50;1.60;;;15.60;99.90;;;;;;4987538;28;20494;-86
2023/10/20 20:07:24;;;;;;;3.20;1.53;;;15.60;99.90;;;;;;4983299;28;20485;-88
2023/10/20 20:10:41;;;;;;;2.33;1.70;;;15.50;99.90;;;;;;4934686;28;20512;-88
2023/10/20 20:13:55;;;;;;;1.60;1.50;;;15.40;99.90;;;;;;4997238;28;20478;-88
2023/10/20 20:31:40;;;;;;;2.80;1.67;;;15.40;99.90;;;;;;4994789;28;20473;-88
2023/10/20 20:38:47;;;;;;;1.90;1.70;;;15.40;99.90;;;;;;4944443;28;20465;-89
2023/10/20 20:42:23;;;;;;;2.80;1.63;;;15.40;99.90;;;;;;4991880;28;20482;-89
2023/10/20 20:49:13;;;;;;;2.47;1.70;;;15.30;99.90;;;;;;4967899;28;20950;-90
2023/10/20 20:52:36;;;;;;;1.67;1.57;;;15.20;99.90;;;;;;5009970;28;20728;-88
2023/10/20 20:56:32;;;;;;;1.97;1.80;;;15.20;99.90;;;;;;5002745;28;20593;-88
2023/10/20 20:59:46;;;;;;;2.77;1.90;;;15.10;99.90;;;;;;4940032;28;20459;-87
2023/10/20 21:02:34;;;;;;;2.10;1.47;;;15.10;99.90;;;;;;4999610;28;20462;-87
2023/10/20 21:05:39;;;;;;;;;;;;;;;;;;;;;
2023/10/20 21:09:28;;;;;;;2.00;1.80;;;15.20;99.90;;;;;;4997861;28;21336;-89
2023/10/20 21:12:39;;;;;;;2.97;2.77;;;15.10;99.90;;;;;;5046919;23;21194;-90
2023/10/20 21:16:04;;;;;;;3.07;2.00;;;15.30;99.90;;;;;;5014472;28;20464;-88
2023/10/20 21:19:10;;;;;;;2.97;1.70;;;15.40;99.90;;;;;;5031995;28;20478;-86
2023/10/20 21:22:05;;;;;;;3.13;2.07;;;15.40;99.90;;;;;;5018353;28;20462;-88
2023/10/20 21:25:21;;;;;;;3.87;2.23;;;15.30;99.90;;;;;;5014827;28;21031;-87
2023/10/20 21:28:16;;;;;;;3.80;1.83;;;15.20;99.90;;;;;;4974711;28;20443;-90
2023/10/20 21:31:51;;;;;;;4.90;1.60;;;15.10;99.90;;;;;;5011250;28;20467;-88
2023/10/20 21:35:17;;;;;;;2.27;2.00;;;15.10;99.90;;;;;;5015662;28;20431;-89
2023/10/20 21:38:23;;;;;;;2.50;2.30;;;15.10;99.90;;;;;;5027600;28;21757;-87
2023/10/20 21:45:44;;;;;;;2.20;1.70;;;15.10;99.90;;;;;;5007057;28;20469;-89
2023/10/20 21:49:03;;;;;;;4.50;2.10;;;15.10;99.90;;;;;;4966891;28;20508;-90
2023/10/20 21:51:53;;;;;;;2.80;2.00;;;15.10;99.90;;;;;;5025515;28;20477;-89
2023/10/20 21:55:12;;;;;;;2.40;2.07;;;14.90;99.90;;;;;;4988609;28;20435;-90
2023/10/20 21:59:00;;;;;;;;;;;;;;;;;;;;;
2023/10/20 22:02:09;;;;;;;1.90;1.80;;;15.00;99.90;;;;;;4942904;29;20592;-91
2023/10/20 22:05:21;;;;;;;1.50;1.40;;;15.10;99.90;;;;;;4891339;29;20479;-89
2023/10/20 22:08:39;;;;;;;1.53;1.43;;;15.20;99.90;;;;;;4892672;29;20467;-89
2023/10/20 22:30:59;;;;;;;2.50;1.57;;;15.00;99.90;;;;;;4996270;28;20978;-88
2023/10/20 22:41:38;;;;;;;3.00;1.90;;;15.00;99.90;;;;;;4905577;29;20458;-89
2023/10/20 23:00:34;;;;;;;1.90;1.63;;;15.10;99.90;;;;;;4928093;29;20470;-86
2023/10/20 23:04:03;;;;;;;2.33;1.70;;;15.00;99.90;;;;;;4866455;29;20486;-87
2023/10/20 23:07:33;;;;;;;3.10;1.70;;;15.00;99.90;;;;;;4856435;29;20537;-87
2023/10/20 23:11:00;;;;;;;3.30;1.57;;;15.20;99.90;;;;;;4842464;29;20511;-87
2023/10/20 23:24:25;;;;;;;1.90;1.63;;;15.20;99.90;;;;;;5002893;23;20495;-87
2023/10/20 23:28:18;;;;;;;2.57;1.90;;;15.20;99.90;;;;;;4997528;28;20481;-88
2023/10/20 23:35:37;;;;;;;1.80;1.57;;;15.10;99.90;;;;;;4977212;28;20706;-87
2023/10/20 23:39:30;;;;;;;2.23;1.30;;;15.00;99.90;;;;;;4986709;28;20499;-88
2023/10/20 23:46:42;;;;;;;2.10;1.47;;;15.10;99.90;;;;;;4975364;28;20442;-88
